• Join FlightAware (Why Join?)
  • Login
  • US Flag 
02:05AM EDT


 

Airport Tracker/Info


-or-


 

Live Flight TrackerFlight Track Log ✈ N102WY ✈ 17-May-2013 ✈ KGCC - KCOD

Flight Track Log - Related Links

Times and Time Zones

All times are in EDT time to prevent confusion due to time zone crossing. See the N102WY flight status page for this flight to view local times or setup timezone preferences in your user account.

Time Position Orientation Groundspeed Altitude Reporting Facility
EDT Latitude Longitude Course Direction KTS MPH feet Rate Location/Type
11:43AM 44.3627 -105.8643 279° West  Level FlightAware Approximate
11:43AM 44.3919 -105.8000 274° West 260 299 14,200  Level Salt Lake Center
11:44AM 44.3721 -105.9753 276° West  Level FlightAware Approximate
11:44AM 44.3978 -105.9225 274° West 280 322 17,600  Level Salt Lake Center
11:45AM 44.3800 -106.0864 276° West  Level FlightAware Approximate
11:45AM 44.4033 -106.0286 274° West 285 328 20,500  Level Salt Lake Center
11:46AM 44.3833 -106.1980 270° West  Level FlightAware Approximate
11:46AM 44.4097 -106.1464 274° West 287 330 23,300  Level Salt Lake Center
11:47AM 44.3864 -106.3095 276° West  Level FlightAware Approximate
11:47AM 44.4158 -106.2778 274° West 299 344 25,700  Level Salt Lake Center
11:48AM 44.4219 -106.4000 274° West 321 369 27,000 1,080 Climbing Salt Lake Center
11:49AM 44.4286 -106.5478 274° West 337 388 28,000 480 Climbing Salt Lake Center
11:50AM 44.4344 -106.6697 274° West 331 381 28,000  Level Salt Lake Center
11:51AM 44.4394 -106.7947 273° West 334 384 28,000  Level Salt Lake Center
11:52AM 44.4461 -106.9450 274° West 343 395 28,000  Level Salt Lake Center
11:53AM 44.4508 -107.0758 273° West 349 402 28,000  Level Salt Lake Center
11:54AM 44.4572 -107.2278 273° West 349 402 28,000  Level Salt Lake Center
11:55AM 44.4628 -107.3589 273° West 350 403 28,000  Level Salt Lake Center
11:56AM 44.4681 -107.5100 273° West 349 402 28,000  Level Salt Lake Center
11:57AM 44.4731 -107.6386 273° West 345 397 28,000 -180 Level Salt Lake Center
11:58AM 44.4808 -107.7689 275° West 347 399 27,700 -1,500 Descending Salt Lake Center
11:59AM 44.4983 -107.9261 279° West 364 419 25,000 -2,400 Descending Salt Lake Center
12:00PM 44.5100 -108.0533 277° West 347 399 22,800 -2,520 Descending Salt Lake Center
12:01PM 44.5247 -108.1906 279° West 322 371 19,900 -2,520 Descending Salt Lake Center
12:02PM 44.5361 -108.3064 278° West 315 362 17,600 -2,160 Descending Salt Lake Center
12:03PM 44.5475 -108.4164 278° West 307 353 15,500 -2,640 Descending Salt Lake Center
12:04PM 44.5600 -108.5406 278° West 295 339 12,200 -2,700 Descending Salt Lake Center
12:06PM 44.5700 -108.6436 278° West 287 330 10,000 -1,980 Descending Salt Lake Center
12:07PM 44.6231 -108.7239 313° West 269 310 8,200 -1,800 Descending Salt Lake Center